Time;durP1;ratioP1;P1;durP2;ratioP2;P2;SDS_P1;SDS_P2;PMS_P1;PMS_P2;Temp;Humidity;BMP_temperature;BMP_pressure;BME280_temperature;BME280_humidity;BME280_pressure;Samples;Min_cycle;Max_cycle;Signal;HPM_P1;HPM_P2
2023/12/07 00:02:07;;;;;;;24.50;19.50;;;3.30;99.90;;;;;;5042160;28;20288;-67
2023/12/07 00:04:34;;;;;;;22.67;18.90;;;3.20;99.90;;;;;;5030284;28;20188;-66
2023/12/07 00:07:01;;;;;;;26.37;20.07;;;3.10;99.90;;;;;;5032177;28;20184;-67
2023/12/07 00:09:28;;;;;;;20.77;18.83;;;3.10;99.90;;;;;;5043172;28;20195;-67
2023/12/07 00:11:55;;;;;;;24.73;19.83;;;3.00;99.90;;;;;;5033953;28;20330;-66
2023/12/07 00:14:22;;;;;;;25.13;18.37;;;3.00;99.90;;;;;;5030637;28;20229;-66
2023/12/07 00:16:49;;;;;;;21.93;18.50;;;3.00;99.90;;;;;;5027535;28;20199;-66
2023/12/07 00:19:16;;;;;;;29.57;20.50;;;3.10;99.90;;;;;;5037951;28;20203;-66
2023/12/07 00:21:43;;;;;;;22.57;19.13;;;3.10;99.90;;;;;;5019895;28;20585;-66
2023/12/07 00:24:10;;;;;;;22.33;18.80;;;3.10;99.90;;;;;;5020175;28;20243;-65
2023/12/07 00:26:38;;;;;;;24.93;19.03;;;3.10;99.90;;;;;;5027052;28;20275;-67
2023/12/07 00:29:05;;;;;;;20.30;18.27;;;3.10;99.90;;;;;;5018106;28;20197;-67
2023/12/07 00:31:32;;;;;;;21.20;18.77;;;3.20;99.90;;;;;;5033616;28;20337;-68
2023/12/07 00:33:59;;;;;;;21.33;19.00;;;3.20;99.90;;;;;;5030051;28;20207;-68
2023/12/07 00:36:26;;;;;;;25.37;19.03;;;3.20;99.90;;;;;;5033527;28;20271;-67
2023/12/07 00:38:53;;;;;;;21.77;19.40;;;3.20;99.90;;;;;;5034266;28;20214;-69
2023/12/07 00:41:20;;;;;;;23.83;19.80;;;3.20;99.90;;;;;;5022862;28;20227;-68
2023/12/07 00:43:47;;;;;;;25.33;18.97;;;3.20;99.90;;;;;;5033826;28;20552;-66
2023/12/07 00:46:14;;;;;;;24.10;19.50;;;3.20;99.90;;;;;;5034811;28;20196;-66
2023/12/07 00:48:41;;;;;;;28.60;21.33;;;3.20;99.90;;;;;;5019068;28;20197;-66
2023/12/07 00:51:09;;;;;;;31.27;21.73;;;3.20;99.90;;;;;;5036314;28;20199;-67
2023/12/07 00:53:36;;;;;;;29.27;22.33;;;3.10;99.90;;;;;;5026963;28;20196;-67
2023/12/07 00:56:04;;;;;;;26.50;19.63;;;3.10;99.90;;;;;;5029210;28;20200;-68
2023/12/07 00:58:31;;;;;;;27.53;21.87;;;3.10;99.90;;;;;;5032650;28;20235;-67
2023/12/07 01:00:58;;;;;;;33.10;23.20;;;3.20;99.90;;;;;;5036699;28;20242;-68
2023/12/07 01:03:25;;;;;;;28.97;21.60;;;3.10;99.90;;;;;;5036575;28;20200;-67
2023/12/07 01:05:52;;;;;;;26.17;20.27;;;3.10;99.90;;;;;;5031548;28;20200;-68
2023/12/07 01:08:19;;;;;;;22.77;18.57;;;3.10;99.90;;;;;;5009323;28;20731;-67
2023/12/07 01:10:46;;;;;;;24.20;19.40;;;3.10;99.90;;;;;;5033739;28;20281;-67
2023/12/07 01:13:13;;;;;;;24.83;20.83;;;3.00;99.90;;;;;;5028406;28;20350;-68
2023/12/07 01:15:40;;;;;;;27.23;19.87;;;3.00;99.90;;;;;;5023987;28;20215;-67
2023/12/07 01:18:09;;;;;;;25.70;20.97;;;3.00;99.90;;;;;;5025794;28;20618;-67
2023/12/07 01:20:36;;;;;;;31.43;20.90;;;2.90;99.90;;;;;;5031187;28;20262;-67
2023/12/07 01:23:03;;;;;;;26.57;19.93;;;2.90;99.90;;;;;;5039826;28;20211;-67
2023/12/07 01:25:30;;;;;;;28.87;20.63;;;3.00;99.90;;;;;;5022731;28;20216;-67
2023/12/07 01:27:58;;;;;;;25.37;20.10;;;2.90;99.90;;;;;;5029030;28;20219;-68
2023/12/07 01:30:25;;;;;;;32.50;20.10;;;3.00;99.90;;;;;;5022426;28;20316;-67
2023/12/07 01:32:52;;;;;;;34.30;22.97;;;3.00;99.90;;;;;;5038337;28;20268;-69
2023/12/07 01:35:20;;;;;;;29.30;22.00;;;2.90;99.90;;;;;;5026475;28;20240;-68
2023/12/07 01:37:47;;;;;;;34.13;22.23;;;3.00;99.90;;;;;;5037348;28;20195;-65
2023/12/07 01:40:15;;;;;;;29.43;21.57;;;3.00;99.90;;;;;;5036143;28;20227;-65
2023/12/07 01:42:52;;;;;;;29.10;21.10;;;3.00;99.90;;;;;;5030297;28;20208;-66
2023/12/07 01:45:20;;;;;;;34.17;22.73;;;3.00;99.90;;;;;;5052414;28;20191;-65
2023/12/07 01:47:50;;;;;;;30.00;21.67;;;3.00;99.90;;;;;;5032274;28;20255;-65
2023/12/07 01:50:23;;;;;;;28.10;20.63;;;3.00;99.90;;;;;;5038621;28;20247;-64
2023/12/07 01:52:54;;;;;;;33.37;21.57;;;3.00;99.90;;;;;;5031084;28;20195;-69
2023/12/07 01:55:22;;;;;;;32.20;21.90;;;3.00;99.90;;;;;;5039244;28;20204;-69
2023/12/07 01:57:50;;;;;;;37.90;24.13;;;3.00;99.90;;;;;;5035857;28;20660;-70
2023/12/07 02:00:17;;;;;;;37.70;23.93;;;3.00;99.90;;;;;;5043689;28;20686;-70
2023/12/07 02:02:45;;;;;;;33.87;21.50;;;3.00;99.90;;;;;;5036115;28;20477;-70
2023/12/07 02:05:13;;;;;;;37.57;24.03;;;3.00;99.90;;;;;;5035584;28;20202;-70
2023/12/07 02:07:42;;;;;;;41.80;28.13;;;3.00;99.90;;;;;;5039770;28;20215;-70
2023/12/07 02:10:13;;;;;;;35.90;23.70;;;3.00;99.90;;;;;;5038128;28;20246;-70
2023/12/07 02:12:40;;;;;;;37.97;25.07;;;3.00;99.90;;;;;;5029737;28;20323;-70
2023/12/07 02:15:08;;;;;;;44.33;28.20;;;3.00;99.90;;;;;;5032605;28;20688;-70
2023/12/07 02:17:59;;;;;;;41.13;26.73;;;3.00;99.90;;;;;;5031364;28;20195;-70
2023/12/07 02:20:29;;;;;;;37.73;24.63;;;2.90;99.90;;;;;;5034026;28;20218;-70
2023/12/07 02:23:02;;;;;;;39.87;24.70;;;2.90;99.90;;;;;;5031446;28;20375;-70
2023/12/07 02:25:40;;;;;;;32.63;23.03;;;3.00;99.90;;;;;;5032437;28;20192;-70
2023/12/07 02:28:07;;;;;;;42.77;24.53;;;3.00;99.90;;;;;;5024710;28;20192;-70
2023/12/07 02:30:34;;;;;;;42.67;25.90;;;3.00;99.90;;;;;;5022773;28;20662;-70
2023/12/07 02:33:01;;;;;;;46.27;26.43;;;3.00;99.90;;;;;;5024585;28;20201;-70
2023/12/07 02:35:29;;;;;;;45.73;24.27;;;3.00;99.90;;;;;;5007902;28;20317;-70
2023/12/07 02:37:56;;;;;;;47.83;26.03;;;3.00;99.90;;;;;;5029916;28;20196;-70
2023/12/07 02:40:28;;;;;;;48.77;25.03;;;3.00;99.90;;;;;;5016120;28;20681;-70
2023/12/07 02:42:57;;;;;;;50.47;26.43;;;3.10;99.90;;;;;;5025279;28;20216;-70
2023/12/07 02:45:26;;;;;;;49.77;25.90;;;3.00;99.90;;;;;;5028628;28;20200;-70
2023/12/07 02:47:53;;;;;;;54.70;27.13;;;3.00;99.90;;;;;;5020778;28;20242;-69
2023/12/07 02:50:20;;;;;;;43.40;24.87;;;3.00;99.90;;;;;;5019971;28;20261;-64
2023/12/07 02:52:47;;;;;;;48.97;24.83;;;2.90;99.90;;;;;;5031310;28;20250;-66
2023/12/07 02:55:14;;;;;;;47.27;24.17;;;3.00;99.90;;;;;;5030119;28;20199;-66
2023/12/07 02:57:41;;;;;;;44.10;24.37;;;2.90;99.90;;;;;;5031398;28;20303;-66
2023/12/07 03:00:09;;;;;;;45.33;24.20;;;2.90;99.90;;;;;;5034537;28;20246;-66
2023/12/07 03:06:19;;;;;;;45.53;22.90;;;2.90;99.90;;;;;;5025133;28;20187;-69
2023/12/07 03:08:46;;;;;;;46.20;24.93;;;2.90;99.90;;;;;;5043845;28;20200;-68
2023/12/07 03:11:13;;;;;;;50.63;25.27;;;2.90;99.90;;;;;;5042526;28;20232;-68
2023/12/07 03:13:40;;;;;;;42.97;24.00;;;2.90;99.90;;;;;;5029231;28;20222;-69
2023/12/07 03:16:09;;;;;;;40.13;22.50;;;2.90;99.90;;;;;;5032499;28;20219;-69
2023/12/07 03:18:37;;;;;;;50.20;24.53;;;2.90;99.90;;;;;;5030402;28;20665;-69
2023/12/07 03:21:06;;;;;;;43.33;24.53;;;2.90;99.90;;;;;;5023637;28;20243;-63
2023/12/07 03:23:35;;;;;;;49.23;25.70;;;2.90;99.90;;;;;;5030951;28;20219;-69
2023/12/07 03:26:03;;;;;;;41.03;23.90;;;2.90;99.90;;;;;;5017131;28;20193;-68
2023/12/07 03:28:29;;;;;;;46.67;24.93;;;2.80;99.90;;;;;;5021889;28;20243;-70
2023/12/07 03:30:57;;;;;;;49.83;25.70;;;2.80;99.90;;;;;;5022212;28;20189;-68
2023/12/07 03:33:24;;;;;;;37.93;21.53;;;2.80;99.90;;;;;;5009183;28;20576;-68
2023/12/07 03:35:51;;;;;;;37.80;23.30;;;2.80;99.90;;;;;;5022100;28;20208;-68
2023/12/07 03:38:18;;;;;;;45.23;25.20;;;2.70;99.90;;;;;;5018761;28;20714;-68
2023/12/07 03:40:47;;;;;;;37.90;22.30;;;2.80;99.90;;;;;;5028907;28;20216;-68
2023/12/07 03:43:19;;;;;;;43.00;24.07;;;2.80;99.90;;;;;;5019972;28;20213;-68
2023/12/07 03:45:46;;;;;;;46.80;24.97;;;2.70;99.90;;;;;;5023673;28;20189;-68
2023/12/07 03:48:13;;;;;;;44.63;23.10;;;2.70;99.90;;;;;;5029509;28;20645;-68
2023/12/07 03:50:40;;;;;;;45.60;23.60;;;2.70;99.90;;;;;;5041870;28;20188;-68
2023/12/07 03:53:07;;;;;;;45.27;24.37;;;2.80;99.90;;;;;;5039269;28;20621;-68
2023/12/07 03:55:34;;;;;;;37.67;23.40;;;2.70;99.90;;;;;;5023150;28;20192;-68
2023/12/07 03:58:01;;;;;;;42.10;23.60;;;2.80;99.90;;;;;;5033901;28;20227;-68
2023/12/07 04:00:28;;;;;;;39.93;23.40;;;2.70;99.90;;;;;;5022431;28;20196;-67
2023/12/07 04:02:55;;;;;;;39.50;24.40;;;2.70;99.90;;;;;;5030769;28;20227;-67
2023/12/07 04:05:22;;;;;;;41.87;24.23;;;2.70;99.90;;;;;;5011819;28;20195;-68
2023/12/07 04:07:49;;;;;;;42.13;24.93;;;2.70;99.90;;;;;;5042697;28;20262;-67
2023/12/07 04:10:16;;;;;;;40.40;24.40;;;2.60;99.90;;;;;;5037316;28;20206;-67
2023/12/07 04:12:43;;;;;;;39.57;23.10;;;2.70;99.90;;;;;;5039603;28;20673;-67
2023/12/07 04:15:10;;;;;;;43.97;25.17;;;2.60;99.90;;;;;;5027308;28;20258;-67
2023/12/07 04:17:37;;;;;;;43.63;25.60;;;2.60;99.90;;;;;;5018365;28;20679;-69
2023/12/07 04:20:05;;;;;;;47.13;24.07;;;2.60;99.90;;;;;;5028200;28;20285;-69
2023/12/07 04:22:32;;;;;;;41.90;24.03;;;2.50;99.90;;;;;;5026974;28;20239;-67
2023/12/07 04:24:59;;;;;;;35.70;21.63;;;2.50;99.90;;;;;;5025869;28;20586;-67
2023/12/07 04:27:26;;;;;;;41.57;23.50;;;2.50;99.90;;;;;;5027977;28;20199;-68
2023/12/07 04:29:53;;;;;;;37.07;23.87;;;2.50;99.90;;;;;;5034645;28;20199;-68
2023/12/07 04:32:20;;;;;;;41.07;24.27;;;2.30;99.90;;;;;;5021863;28;20197;-68
2023/12/07 04:34:47;;;;;;;41.27;23.47;;;2.20;99.90;;;;;;5022983;28;20528;-68
2023/12/07 04:37:15;;;;;;;40.07;24.17;;;2.10;99.90;;;;;;5023216;28;20193;-67
2023/12/07 04:39:42;;;;;;;41.50;24.73;;;2.00;99.90;;;;;;5026647;28;20199;-68
2023/12/07 04:42:09;;;;;;;40.17;23.67;;;1.90;99.90;;;;;;5027305;28;20690;-68
2023/12/07 04:44:36;;;;;;;36.57;22.80;;;1.90;99.90;;;;;;5019413;28;20193;-69
2023/12/07 04:47:03;;;;;;;42.70;23.83;;;1.90;99.90;;;;;;5019673;28;20709;-67
2023/12/07 04:49:30;;;;;;;35.97;22.87;;;1.80;99.90;;;;;;5022498;28;20208;-69
2023/12/07 04:51:59;;;;;;;41.97;22.07;;;1.70;99.90;;;;;;5026599;28;20644;-69
2023/12/07 04:54:27;;;;;;;39.47;22.37;;;1.60;99.90;;;;;;5026352;28;20200;-69
2023/12/07 04:56:54;;;;;;;32.40;22.37;;;1.50;99.90;;;;;;5015966;28;20220;-69
2023/12/07 04:59:21;;;;;;;32.23;21.77;;;1.50;99.90;;;;;;5027861;28;20228;-69
2023/12/07 05:01:48;;;;;;;32.50;21.47;;;1.50;99.90;;;;;;5027273;28;20601;-69
2023/12/07 05:04:15;;;;;;;35.70;22.90;;;1.50;99.90;;;;;;5028345;28;20219;-69
2023/12/07 05:06:42;;;;;;;34.17;20.33;;;1.50;99.90;;;;;;5031560;28;20188;-68
2023/12/07 05:09:09;;;;;;;39.67;23.07;;;1.50;99.90;;;;;;5028389;28;20374;-67
2023/12/07 05:11:37;;;;;;;35.50;22.47;;;1.50;99.90;;;;;;5008961;28;20306;-68
2023/12/07 05:14:04;;;;;;;41.67;25.53;;;1.50;99.90;;;;;;5029411;28;20286;-67
2023/12/07 05:16:31;;;;;;;43.30;26.73;;;1.60;99.90;;;;;;5032435;28;20208;-68
2023/12/07 05:18:58;;;;;;;35.47;21.87;;;1.60;99.90;;;;;;5013796;28;20200;-66
2023/12/07 05:21:25;;;;;;;46.63;24.57;;;1.60;99.90;;;;;;5030361;28;20291;-64
2023/12/07 05:23:52;;;;;;;41.60;24.00;;;1.50;99.90;;;;;;5032735;28;20696;-63
2023/12/07 05:26:21;;;;;;;43.37;25.03;;;1.50;99.90;;;;;;5031613;28;20200;-65
2023/12/07 05:28:48;;;;;;;41.87;25.63;;;1.60;99.90;;;;;;5025261;28;20196;-68
2023/12/07 05:31:18;;;;;;;45.83;23.80;;;1.60;99.90;;;;;;5017721;28;20884;-68
2023/12/07 05:33:45;;;;;;;42.50;22.77;;;1.50;99.90;;;;;;5042092;28;20211;-67
2023/12/07 05:36:12;;;;;;;38.83;22.50;;;1.50;99.90;;;;;;5021076;28;20708;-66
2023/12/07 05:38:39;;;;;;;40.63;22.77;;;1.50;99.90;;;;;;5018966;28;20673;-66
2023/12/07 05:41:06;;;;;;;39.40;21.97;;;1.60;99.90;;;;;;5024567;28;20245;-66
2023/12/07 05:43:33;;;;;;;39.10;21.30;;;1.60;99.90;;;;;;5019165;28;20250;-66
2023/12/07 05:46:00;;;;;;;38.73;22.73;;;1.60;99.90;;;;;;5017936;28;20258;-66
2023/12/07 05:48:27;;;;;;;42.53;23.73;;;1.60;99.90;;;;;;5019974;28;20297;-66
2023/12/07 05:50:55;;;;;;;37.70;20.13;;;1.60;99.90;;;;;;5025886;28;20219;-66
2023/12/07 05:53:22;;;;;;;47.20;22.47;;;1.70;99.90;;;;;;5012187;28;20295;-66
2023/12/07 05:55:49;;;;;;;46.60;23.10;;;1.70;99.90;;;;;;5020316;28;20203;-66
2023/12/07 05:58:19;;;;;;;43.50;23.07;;;1.70;99.90;;;;;;5025858;28;20217;-66
2023/12/07 06:00:46;;;;;;;52.83;27.10;;;1.70;99.90;;;;;;5023346;28;20216;-66
2023/12/07 06:03:15;;;;;;;45.47;24.00;;;1.80;99.90;;;;;;5025231;28;20273;-66
2023/12/07 06:05:43;;;;;;;46.63;23.63;;;1.80;99.90;;;;;;5020770;28;20200;-66
2023/12/07 06:08:10;;;;;;;37.33;21.40;;;1.80;99.90;;;;;;5012697;28;20203;-66
2023/12/07 06:10:38;;;;;;;42.80;24.03;;;1.80;99.90;;;;;;5026110;28;20692;-66
2023/12/07 06:13:05;;;;;;;44.43;22.63;;;1.80;99.90;;;;;;5020957;28;20318;-66
2023/12/07 06:15:33;;;;;;;41.87;23.63;;;1.90;99.90;;;;;;5026104;28;20624;-66
2023/12/07 06:18:00;;;;;;;41.60;22.77;;;1.90;99.90;;;;;;5023378;28;20250;-67
2023/12/07 06:20:27;;;;;;;55.37;25.73;;;1.90;99.90;;;;;;5025759;28;20221;-66
2023/12/07 06:22:54;;;;;;;47.43;23.63;;;2.00;99.90;;;;;;5021176;28;20264;-62
2023/12/07 06:25:22;;;;;;;46.90;22.60;;;1.90;99.90;;;;;;5017030;28;20594;-63
2023/12/07 06:27:49;;;;;;;43.57;21.30;;;1.80;99.90;;;;;;5021834;28;20208;-63
2023/12/07 06:30:16;;;;;;;48.70;21.47;;;1.70;99.90;;;;;;5028117;28;20193;-62
2023/12/07 06:32:43;;;;;;;36.60;20.93;;;1.80;99.90;;;;;;5028076;28;20654;-63
2023/12/07 06:35:13;;;;;;;46.37;21.63;;;1.80;99.90;;;;;;5030630;28;20192;-62
2023/12/07 06:37:41;;;;;;;56.00;30.33;;;1.80;99.90;;;;;;5025877;28;20286;-66
2023/12/07 06:40:11;;;;;;;53.43;28.23;;;1.80;99.90;;;;;;5024274;28;20200;-66
2023/12/07 06:42:39;;;;;;;54.90;27.57;;;1.80;99.90;;;;;;5013331;28;20514;-66
2023/12/07 06:45:10;;;;;;;44.40;21.40;;;1.90;99.90;;;;;;5019011;28;20839;-66
2023/12/07 06:47:38;;;;;;;48.73;22.53;;;1.90;99.90;;;;;;5021822;28;20203;-66
2023/12/07 06:50:09;;;;;;;37.97;19.27;;;1.80;99.90;;;;;;5027455;28;20222;-66
2023/12/07 06:52:37;;;;;;;34.90;20.40;;;1.90;99.90;;;;;;5027038;28;20192;-66
2023/12/07 06:55:05;;;;;;;35.70;19.37;;;1.80;99.90;;;;;;5025161;28;20232;-66
2023/12/07 06:57:33;;;;;;;39.57;20.67;;;1.80;99.90;;;;;;5026095;28;20215;-66
2023/12/07 07:00:01;;;;;;;37.47;20.47;;;1.80;99.90;;;;;;5019511;28;20200;-66
2023/12/07 07:02:28;;;;;;;36.33;19.60;;;1.80;99.90;;;;;;5034095;28;20188;-66
2023/12/07 07:04:55;;;;;;;37.17;21.53;;;1.70;99.90;;;;;;5017529;28;20239;-67
2023/12/07 07:07:22;;;;;;;41.60;20.77;;;1.70;99.90;;;;;;5018690;28;20192;-66
2023/12/07 07:09:49;;;;;;;41.67;21.33;;;1.70;99.90;;;;;;5024934;28;20219;-65
2023/12/07 07:12:16;;;;;;;42.40;20.70;;;1.70;99.90;;;;;;5026016;28;20224;-65
2023/12/07 07:14:43;;;;;;;37.93;20.87;;;1.80;99.90;;;;;;5036264;28;20211;-66
2023/12/07 07:17:10;;;;;;;39.23;21.43;;;1.90;99.90;;;;;;5019470;28;20219;-66
2023/12/07 07:19:37;;;;;;;40.70;20.57;;;1.90;99.90;;;;;;5029521;28;20937;-62
2023/12/07 07:22:04;;;;;;;33.30;19.70;;;1.90;99.90;;;;;;5017466;28;20235;-61
2023/12/07 07:24:31;;;;;;;41.33;20.00;;;1.90;99.90;;;;;;5018999;28;20300;-62
2023/12/07 07:26:58;;;;;;;39.07;20.73;;;1.90;99.90;;;;;;5010176;28;20237;-62
2023/12/07 07:29:25;;;;;;;38.37;22.27;;;1.90;99.90;;;;;;5022456;28;20192;-63
2023/12/07 07:31:55;;;;;;;33.90;21.23;;;1.90;99.90;;;;;;5029893;28;20244;-63
2023/12/07 07:34:22;;;;;;;37.20;21.37;;;1.90;99.90;;;;;;5030915;28;20195;-62
2023/12/07 07:36:50;;;;;;;39.50;21.60;;;1.80;99.90;;;;;;5025984;28;20216;-63
2023/12/07 07:39:17;;;;;;;35.50;21.63;;;1.80;99.90;;;;;;5025958;28;20200;-62
2023/12/07 07:41:44;;;;;;;37.93;21.77;;;1.80;99.90;;;;;;5021966;28;20201;-65
2023/12/07 07:44:11;;;;;;;41.47;22.97;;;1.70;99.90;;;;;;5023649;28;20216;-66
2023/12/07 07:46:40;;;;;;;38.60;21.53;;;1.60;99.90;;;;;;5020583;28;20219;-69
2023/12/07 07:49:07;;;;;;;36.80;21.80;;;1.60;99.90;;;;;;5024553;28;20204;-69
2023/12/07 07:51:34;;;;;;;41.40;23.33;;;1.70;99.90;;;;;;5020595;28;20196;-70
2023/12/07 07:54:01;;;;;;;39.93;22.77;;;1.70;99.90;;;;;;5019855;28;20200;-69
2023/12/07 07:56:28;;;;;;;41.30;22.30;;;1.70;99.90;;;;;;5024448;28;20196;-68
2023/12/07 07:58:55;;;;;;;41.77;23.50;;;1.70;99.90;;;;;;5015380;28;20719;-68
2023/12/07 08:01:21;;;;;;;36.57;21.57;;;1.80;99.90;;;;;;5025571;28;20231;-69
2023/12/07 08:03:49;;;;;;;38.27;22.37;;;1.80;99.90;;;;;;5014200;28;20208;-69
2023/12/07 08:06:16;;;;;;;42.93;23.87;;;1.80;99.90;;;;;;5023267;28;20642;-68
2023/12/07 08:08:43;;;;;;;40.50;22.50;;;1.80;99.90;;;;;;5022389;28;20758;-68
2023/12/07 08:11:10;;;;;;;29.77;22.00;;;1.80;99.90;;;;;;5018481;28;20208;-71
2023/12/07 08:13:37;;;;;;;34.57;21.53;;;1.90;99.90;;;;;;5023242;28;20199;-68
2023/12/07 08:16:09;;;;;;;35.90;21.93;;;1.80;99.90;;;;;;5026931;28;20250;-69
2023/12/07 08:18:36;;;;;;;36.87;21.87;;;1.90;99.90;;;;;;5019883;28;20612;-69
2023/12/07 08:21:03;;;;;;;35.30;21.07;;;1.90;99.90;;;;;;5021342;28;20219;-71
2023/12/07 08:23:30;;;;;;;35.83;21.73;;;1.90;99.90;;;;;;5014226;28;20239;-70
2023/12/07 08:25:57;;;;;;;37.93;23.47;;;2.00;99.90;;;;;;5017292;28;20196;-71
2023/12/07 08:28:24;;;;;;;37.37;23.00;;;2.10;99.90;;;;;;5020163;28;20214;-71
2023/12/07 08:30:51;;;;;;;36.13;21.47;;;2.20;99.90;;;;;;5024979;28;20192;-68
2023/12/07 08:33:18;;;;;;;39.57;21.70;;;2.10;99.90;;;;;;5025040;28;20611;-70
2023/12/07 08:35:45;;;;;;;35.20;20.37;;;2.10;99.90;;;;;;5025106;28;20188;-70
2023/12/07 08:38:12;;;;;;;32.10;21.80;;;2.10;99.90;;;;;;5023374;28;20204;-67
2023/12/07 08:40:39;;;;;;;35.10;23.10;;;2.10;99.90;;;;;;5006541;28;20197;-66
2023/12/07 08:43:06;;;;;;;37.73;23.17;;;2.20;99.90;;;;;;5021755;28;20271;-67
2023/12/07 08:45:38;;;;;;;38.87;24.97;;;2.20;99.90;;;;;;5019312;28;20281;-66
2023/12/07 08:48:05;;;;;;;37.17;23.30;;;2.30;99.90;;;;;;5023484;28;20199;-66
2023/12/07 08:50:32;;;;;;;39.80;22.97;;;2.30;99.90;;;;;;5024084;28;20202;-67
2023/12/07 08:52:59;;;;;;;37.50;22.80;;;2.40;99.90;;;;;;5017960;28;20588;-70
2023/12/07 08:55:31;;;;;;;38.27;22.57;;;2.40;99.90;;;;;;5025984;28;20250;-70
2023/12/07 08:58:00;;;;;;;31.80;21.07;;;2.50;99.90;;;;;;5020694;28;20342;-64
2023/12/07 09:00:27;;;;;;;32.67;21.63;;;2.50;99.90;;;;;;5027925;28;20200;-65
2023/12/07 09:02:54;;;;;;;34.97;23.30;;;2.50;99.90;;;;;;5025638;28;20656;-65
2023/12/07 09:05:22;;;;;;;32.87;21.83;;;2.50;99.90;;;;;;5021944;28;20323;-65
2023/12/07 09:07:50;;;;;;;39.10;22.47;;;2.60;99.90;;;;;;5025869;28;20227;-64
2023/12/07 09:10:17;;;;;;;47.47;22.63;;;2.80;99.90;;;;;;5004521;28;20560;-65
2023/12/07 09:12:44;;;;;;;47.30;28.23;;;3.50;99.90;;;;;;5027332;28;20228;-64
2023/12/07 09:15:10;;;;;;;57.33;30.47;;;7.10;99.90;;;;;;5030248;28;20200;-65
2023/12/07 09:17:39;;;;;;;53.43;30.37;;;10.50;99.90;;;;;;5014877;28;20240;-66
2023/12/07 09:20:12;;;;;;;33.63;26.37;;;12.90;99.90;;;;;;5036921;28;20420;-67
2023/12/07 09:22:46;;;;;;;25.97;23.40;;;14.40;99.90;;;;;;5028732;28;20196;-66
2023/12/07 09:25:15;;;;;;;27.48;24.20;;;15.30;99.90;;;;;;5018602;28;20693;-67
2023/12/07 09:27:42;;;;;;;29.70;26.17;;;16.20;99.90;;;;;;5027579;28;20227;-66
2023/12/07 09:30:10;;;;;;;31.30;25.33;;;16.20;99.90;;;;;;5019176;28;20196;-66
2023/12/07 09:32:39;;;;;;;32.97;26.92;;;16.00;99.90;;;;;;5020204;28;20284;-66
2023/12/07 09:35:13;;;;;;;47.70;34.83;;;16.00;99.90;;;;;;5025271;28;20192;-66
2023/12/07 09:37:42;;;;;;;75.95;46.63;;;15.70;99.90;;;;;;5014395;28;20204;-66
2023/12/07 09:40:16;;;;;;;29.27;26.17;;;15.50;99.90;;;;;;5028637;28;20196;-70
2023/12/07 09:42:44;;;;;;;29.92;26.75;;;13.30;99.90;;;;;;5024758;28;20203;-66
2023/12/07 09:45:11;;;;;;;28.33;25.42;;;12.60;99.90;;;;;;5021445;28;20208;-67
2023/12/07 09:47:39;;;;;;;28.77;25.88;;;12.90;99.90;;;;;;5024939;28;20287;-67
2023/12/07 09:50:09;;;;;;;27.88;25.08;;;12.80;99.90;;;;;;5025429;28;20518;-68
2023/12/07 09:52:36;;;;;;;28.92;25.88;;;14.50;99.90;;;;;;5028661;28;20586;-68
2023/12/07 09:55:04;;;;;;;28.30;25.15;;;14.30;99.90;;;;;;5027867;28;20192;-67
2023/12/07 09:57:32;;;;;;;29.27;26.08;;;13.40;99.90;;;;;;5028297;28;20576;-68
2023/12/07 10:00:00;;;;;;;27.40;24.70;;;14.30;99.90;;;;;;5026113;28;20297;-67
2023/12/07 10:02:27;;;;;;;28.60;25.67;;;13.60;99.90;;;;;;5025712;28;20560;-66
2023/12/07 10:05:13;;;;;;;28.95;25.30;;;12.60;99.90;;;;;;5028986;28;20207;-66
2023/12/07 10:07:41;;;;;;;28.55;25.55;;;12.90;99.90;;;;;;5027249;28;20295;-71
2023/12/07 10:10:11;;;;;;;27.45;24.60;;;12.40;99.90;;;;;;5028108;28;20200;-71
2023/12/07 10:12:48;;;;;;;28.75;25.67;;;11.60;99.90;;;;;;5027113;28;20239;-70
2023/12/07 10:15:17;;;;;;;27.05;24.25;;;13.80;99.90;;;;;;5026327;28;20204;-70
2023/12/07 10:17:51;;;;;;;27.55;24.92;;;13.30;99.90;;;;;;5025794;28;20211;-70
2023/12/07 10:20:23;;;;;;;26.73;24.13;;;14.20;99.90;;;;;;5018091;28;20203;-72
2023/12/07 10:23:05;;;;;;;27.33;24.52;;;15.80;99.90;;;;;;5022942;28;20204;-71
2023/12/07 10:25:35;;;;;;;27.52;24.83;;;14.10;99.90;;;;;;5021992;28;20238;-71
2023/12/07 10:28:06;;;;;;;27.17;24.65;;;13.40;99.90;;;;;;5026406;28;20226;-71
2023/12/07 10:30:34;;;;;;;30.25;25.80;;;12.20;99.90;;;;;;5027054;28;20211;-71
2023/12/07 10:33:05;;;;;;;27.98;25.30;;;11.10;99.90;;;;;;5025814;28;20234;-70
2023/12/07 10:35:32;;;;;;;27.17;24.35;;;12.60;99.90;;;;;;5024333;28;20657;-70
2023/12/07 10:37:59;;;;;;;33.20;29.63;;;12.30;99.90;;;;;;5016302;28;20550;-71
2023/12/07 10:40:26;;;;;;;29.38;25.10;;;13.10;99.90;;;;;;5022966;28;20195;-72
2023/12/07 10:42:57;;;;;;;29.15;26.17;;;13.20;99.90;;;;;;5019735;28;20192;-72
2023/12/07 10:45:30;;;;;;;29.33;26.33;;;12.10;99.90;;;;;;5026815;28;20208;-71
2023/12/07 10:48:08;;;;;;;33.20;29.73;;;12.00;99.90;;;;;;5025649;28;20180;-71
2023/12/07 10:50:41;;;;;;;25.83;23.42;;;12.20;99.90;;;;;;5021150;28;20613;-68
2023/12/07 10:53:24;;;;;;;25.92;23.38;;;12.10;99.90;;;;;;5020859;28;20688;-67
2023/12/07 10:55:56;;;;;;;25.45;22.92;;;13.40;99.90;;;;;;5026777;28;20667;-68
2023/12/07 10:58:27;;;;;;;25.55;23.02;;;11.50;99.90;;;;;;5026881;28;20779;-70
2023/12/07 11:00:56;;;;;;;25.35;22.75;;;12.80;99.90;;;;;;5007652;28;20641;-71
2023/12/07 11:03:24;;;;;;;25.23;22.70;;;13.30;99.90;;;;;;5029563;28;20249;-71
2023/12/07 11:05:52;;;;;;;24.60;22.02;;;12.50;99.90;;;;;;5032661;28;20216;-71
2023/12/07 11:08:44;;;;;;;23.83;21.83;;;13.20;99.90;;;;;;5030508;28;20654;-71
2023/12/07 11:11:28;;;;;;;25.23;22.83;;;12.40;99.90;;;;;;5037197;28;20211;-72
2023/12/07 11:14:02;;;;;;;25.00;22.60;;;12.00;99.90;;;;;;5038294;28;20647;-71
2023/12/07 11:16:35;;;;;;;25.23;22.75;;;12.00;99.90;;;;;;5027834;28;20204;-68
2023/12/07 11:19:04;;;;;;;25.10;22.92;;;12.60;99.90;;;;;;5040908;28;20188;-68
2023/12/07 11:21:35;;;;;;;25.00;22.70;;;11.70;99.90;;;;;;5026695;28;20660;-67
2023/12/07 11:24:03;;;;;;;25.73;23.45;;;10.90;99.90;;;;;;5027630;28;20289;-67
2023/12/07 11:26:31;;;;;;;24.95;22.60;;;10.90;99.90;;;;;;5023185;28;20292;-67
2023/12/07 11:28:59;;;;;;;24.52;22.25;;;12.10;99.90;;;;;;5015149;28;20665;-66
2023/12/07 11:31:27;;;;;;;25.58;23.05;;;11.60;99.90;;;;;;5017084;28;20195;-67
2023/12/07 11:33:54;;;;;;;25.73;23.33;;;11.20;99.90;;;;;;5011394;28;20680;-67
2023/12/07 11:36:21;;;;;;;29.73;26.67;;;10.00;99.90;;;;;;5024779;28;20282;-72
2023/12/07 11:39:03;;;;;;;27.17;24.67;;;10.60;99.90;;;;;;5020971;28;20194;-67
2023/12/07 11:41:33;;;;;;;26.50;23.80;;;10.60;99.90;;;;;;5017676;28;20875;-65
2023/12/07 11:44:00;;;;;;;25.63;23.00;;;10.70;99.90;;;;;;5024128;28;20198;-66
2023/12/07 11:46:27;;;;;;;25.63;23.23;;;10.50;99.90;;;;;;5022326;28;20184;-65
2023/12/07 11:48:54;;;;;;;27.83;24.93;;;10.60;99.90;;;;;;5022077;28;20203;-66
2023/12/07 11:51:21;;;;;;;25.20;22.60;;;10.30;99.90;;;;;;5006378;28;20230;-65
2023/12/07 11:53:50;;;;;;;24.17;21.70;;;9.60;99.90;;;;;;5020492;28;20294;-67
2023/12/07 11:56:21;;;;;;;25.83;23.33;;;10.40;99.90;;;;;;5024475;28;20632;-67
2023/12/07 11:58:49;;;;;;;23.00;21.07;;;9.70;99.90;;;;;;5019506;28;20287;-65
2023/12/07 12:01:17;;;;;;;23.10;21.07;;;9.60;99.90;;;;;;5024012;28;20188;-66
2023/12/07 12:03:44;;;;;;;24.53;22.07;;;10.00;99.90;;;;;;5027299;28;20219;-66
2023/12/07 12:06:11;;;;;;;23.57;21.37;;;9.90;99.90;;;;;;5021284;28;20208;-68
2023/12/07 12:08:42;;;;;;;24.07;21.83;;;10.30;99.90;;;;;;5015145;28;20255;-66
2023/12/07 12:11:09;;;;;;;23.23;21.03;;;10.00;99.90;;;;;;5009896;28;20197;-67
2023/12/07 12:13:37;;;;;;;23.90;21.70;;;10.20;99.90;;;;;;5015436;28;20204;-65
2023/12/07 12:16:05;;;;;;;25.87;23.47;;;9.50;99.90;;;;;;5027321;28;20245;-64
2023/12/07 12:18:34;;;;;;;23.03;21.03;;;8.90;99.90;;;;;;5022897;28;20283;-65
2023/12/07 12:21:02;;;;;;;23.10;21.00;;;8.70;99.90;;;;;;5017510;28;20565;-67
2023/12/07 12:23:29;;;;;;;23.93;21.53;;;9.10;99.90;;;;;;5024386;28;20414;-68
2023/12/07 12:25:58;;;;;;;24.30;21.80;;;9.60;99.90;;;;;;5021447;28;20302;-78
2023/12/07 12:28:25;;;;;;;42.83;31.10;;;10.60;99.90;;;;;;5015534;28;20200;-70
2023/12/07 12:30:53;;;;;;;23.30;20.93;;;10.50;99.90;;;;;;5027323;28;20275;-70
2023/12/07 12:33:20;;;;;;;23.67;21.20;;;9.50;99.90;;;;;;5024857;28;20427;-70
2023/12/07 12:35:59;;;;;;;24.70;22.43;;;9.30;99.90;;;;;;5022893;28;20208;-71
2023/12/07 12:38:26;;;;;;;23.50;21.20;;;9.10;99.90;;;;;;5023036;28;20204;-70
2023/12/07 12:41:08;;;;;;;21.80;19.90;;;9.80;99.90;;;;;;5019217;28;20222;-71
2023/12/07 12:43:36;;;;;;;23.10;20.80;;;10.30;99.90;;;;;;5011150;28;20196;-70
2023/12/07 12:46:03;;;;;;;22.70;20.43;;;9.50;99.90;;;;;;5014105;28;20300;-71